Time;durP1;ratioP1;P1;durP2;ratioP2;P2;SDS_P1;SDS_P2;PMS_P1;PMS_P2;Temp;Humidity;BMP_temperature;BMP_pressure;BME280_temperature;BME280_humidity;BME280_pressure;Samples;Min_cycle;Max_cycle;Signal;HPM_P1;HPM_P2
2022/08/03 00:01:03;;;;;;;9.23;4.30;;;;;;;;;;5040666;28;20298;-72
2022/08/03 00:03:32;;;;;;;5.33;3.97;;;;;;;;;;5039214;28;20196;-72
2022/08/03 00:05:59;;;;;;;6.67;3.87;;;;;;;;;;5041447;28;20313;-72
2022/08/03 00:08:26;;;;;;;5.97;4.40;;;;;;;;;;5041911;28;20211;-72
2022/08/03 00:10:53;;;;;;;5.23;3.77;;;;;;;;;;5042148;28;20573;-72
2022/08/03 00:13:20;;;;;;;5.03;3.80;;;;;;;;;;5042382;28;20226;-72
2022/08/03 00:15:47;;;;;;;5.60;3.70;;;;;;;;;;5041559;28;20229;-72
2022/08/03 00:18:14;;;;;;;8.90;4.47;;;;;;;;;;5040660;28;20207;-71
2022/08/03 00:20:43;;;;;;;5.03;3.70;;;;;;;;;;5043191;28;20200;-72
2022/08/03 00:23:10;;;;;;;6.97;3.87;;;;;;;;;;5037981;28;20222;-72
2022/08/03 00:25:38;;;;;;;7.27;4.23;;;;;;;;;;5041331;28;20661;-70
2022/08/03 00:28:05;;;;;;;7.73;3.73;;;;;;;;;;5042157;28;20203;-71
2022/08/03 00:30:33;;;;;;;6.77;3.87;;;;;;;;;;5040102;28;20214;-71
2022/08/03 00:33:00;;;;;;;4.37;3.60;;;;;;;;;;5039817;28;20219;-72
2022/08/03 00:35:28;;;;;;;5.47;3.97;;;;;;;;;;5041971;28;20787;-72
2022/08/03 00:37:56;;;;;;;6.80;3.80;;;;;;;;;;5042895;28;20693;-72
2022/08/03 00:40:23;;;;;;;4.80;3.70;;;;;;;;;;5040228;28;20203;-72
2022/08/03 00:42:52;;;;;;;8.83;4.20;;;;;;;;;;5044756;28;20206;-72
2022/08/03 00:45:20;;;;;;;5.80;3.77;;;;;;;;;;5043211;28;20715;-71
2022/08/03 00:47:47;;;;;;;7.67;4.00;;;;;;;;;;5045210;28;20218;-71
2022/08/03 00:50:14;;;;;;;8.87;4.60;;;;;;;;;;5040730;28;20203;-71
2022/08/03 00:52:42;;;;;;;8.07;4.00;;;;;;;;;;5041191;28;20233;-71
2022/08/03 00:55:10;;;;;;;5.63;4.37;;;;;;;;;;5039414;28;20212;-71
2022/08/03 00:57:38;;;;;;;8.07;4.40;;;;;;;;;;5041472;28;20224;-71
2022/08/03 01:00:06;;;;;;;9.67;4.90;;;;;;;;;;5041800;28;20207;-71
2022/08/03 01:02:33;;;;;;;7.60;4.30;;;;;;;;;;5041682;28;20195;-71
2022/08/03 01:05:00;;;;;;;6.77;3.67;;;;;;;;;;5041896;28;20657;-72
2022/08/03 01:07:32;;;;;;;6.00;4.10;;;;;;;;;;5039832;28;20226;-71
2022/08/03 01:10:02;;;;;;;8.27;4.20;;;;;;;;;;5040192;28;20204;-72
2022/08/03 01:12:35;;;;;;;5.57;3.70;;;;;;;;;;5039735;28;20226;-71
2022/08/03 01:15:06;;;;;;;5.23;4.00;;;;;;;;;;5039113;28;20218;-72
2022/08/03 01:17:37;;;;;;;6.40;4.00;;;;;;;;;;5040422;28;20222;-71
2022/08/03 01:20:06;;;;;;;5.90;3.90;;;;;;;;;;5042774;28;20295;-72
2022/08/03 01:22:40;;;;;;;5.20;3.50;;;;;;;;;;5039162;28;20577;-72
2022/08/03 01:25:16;;;;;;;10.13;3.80;;;;;;;;;;5039066;28;20305;-72
2022/08/03 01:27:52;;;;;;;4.97;3.77;;;;;;;;;;5039995;28;20213;-71
2022/08/03 01:30:21;;;;;;;8.23;4.40;;;;;;;;;;5043599;28;20205;-72
2022/08/03 01:32:51;;;;;;;5.57;4.17;;;;;;;;;;5040406;28;20233;-72
2022/08/03 01:35:20;;;;;;;6.87;4.00;;;;;;;;;;5038933;28;20211;-72
2022/08/03 01:37:50;;;;;;;6.47;4.20;;;;;;;;;;5039946;28;20213;-72
2022/08/03 01:40:19;;;;;;;7.57;4.00;;;;;;;;;;5037481;28;20207;-72
2022/08/03 01:42:46;;;;;;;7.33;3.93;;;;;;;;;;5042250;28;20203;-72
2022/08/03 01:45:16;;;;;;;4.60;3.80;;;;;;;;;;5040034;28;20202;-72
2022/08/03 01:47:45;;;;;;;7.07;4.50;;;;;;;;;;5039442;28;20239;-72
2022/08/03 01:50:13;;;;;;;7.40;4.30;;;;;;;;;;5035563;28;20204;-72
2022/08/03 01:52:41;;;;;;;6.27;4.47;;;;;;;;;;5041257;28;20195;-71
2022/08/03 01:55:10;;;;;;;8.93;4.73;;;;;;;;;;5039248;28;20617;-71
2022/08/03 01:57:38;;;;;;;6.90;4.63;;;;;;;;;;5041100;28;20229;-71
2022/08/03 02:00:08;;;;;;;6.40;4.20;;;;;;;;;;5039614;28;20252;-71
2022/08/03 02:02:35;;;;;;;7.63;4.50;;;;;;;;;;5038585;28;20636;-71
2022/08/03 02:05:06;;;;;;;7.63;4.27;;;;;;;;;;5038788;28;20215;-70
2022/08/03 02:07:34;;;;;;;8.07;4.50;;;;;;;;;;5039169;28;20219;-71
2022/08/03 02:10:03;;;;;;;5.77;4.13;;;;;;;;;;5042476;28;20207;-71
2022/08/03 02:12:31;;;;;;;10.10;4.47;;;;;;;;;;5039328;28;20208;-71
2022/08/03 02:14:59;;;;;;;5.50;4.00;;;;;;;;;;5039293;28;20215;-71
2022/08/03 02:17:28;;;;;;;7.97;4.43;;;;;;;;;;5037723;28;20227;-71
2022/08/03 02:19:56;;;;;;;6.00;4.60;;;;;;;;;;5039453;28;20206;-70
2022/08/03 02:22:25;;;;;;;4.37;3.87;;;;;;;;;;5040307;28;20659;-70
2022/08/03 02:24:52;;;;;;;6.83;3.93;;;;;;;;;;5040865;28;20195;-71
2022/08/03 02:27:21;;;;;;;7.43;4.00;;;;;;;;;;5038576;28;20223;-70
2022/08/03 02:29:51;;;;;;;7.83;4.47;;;;;;;;;;5039306;28;20210;-70
2022/08/03 02:32:21;;;;;;;8.03;4.47;;;;;;;;;;5039719;28;20203;-71
2022/08/03 02:34:49;;;;;;;5.63;4.50;;;;;;;;;;5038936;28;20250;-70
2022/08/03 02:37:19;;;;;;;7.07;4.63;;;;;;;;;;5041454;28;20226;-70
2022/08/03 02:39:50;;;;;;;6.90;4.50;;;;;;;;;;5036686;28;20252;-70
2022/08/03 02:42:21;;;;;;;5.97;4.50;;;;;;;;;;5039385;28;20740;-70
2022/08/03 02:44:50;;;;;;;6.67;4.60;;;;;;;;;;5039571;28;20207;-70
2022/08/03 02:47:20;;;;;;;7.33;4.50;;;;;;;;;;5038641;28;20219;-71
2022/08/03 02:49:49;;;;;;;5.90;4.50;;;;;;;;;;5041039;28;20211;-71
2022/08/03 02:52:16;;;;;;;4.80;4.13;;;;;;;;;;5039680;28;20601;-71
2022/08/03 02:54:43;;;;;;;6.77;3.90;;;;;;;;;;5040052;28;20233;-70
2022/08/03 02:57:13;;;;;;;8.37;4.33;;;;;;;;;;5037377;28;20330;-71
2022/08/03 02:59:41;;;;;;;7.43;4.37;;;;;;;;;;5042685;28;20224;-71
2022/08/03 03:02:08;;;;;;;10.50;4.70;;;;;;;;;;5039501;28;20203;-71
2022/08/03 03:04:36;;;;;;;9.57;4.57;;;;;;;;;;5040030;28;20231;-70
2022/08/03 03:07:03;;;;;;;8.73;4.77;;;;;;;;;;5040882;28;20245;-70
2022/08/03 03:09:31;;;;;;;7.20;4.70;;;;;;;;;;5037532;28;20215;-71
2022/08/03 03:11:58;;;;;;;8.03;4.63;;;;;;;;;;5040800;28;20208;-70
2022/08/03 03:14:27;;;;;;;7.40;4.50;;;;;;;;;;5038697;28;20237;-71
2022/08/03 03:16:55;;;;;;;15.17;4.57;;;;;;;;;;5037536;28;20306;-71
2022/08/03 03:19:22;;;;;;;18.87;5.47;;;;;;;;;;5037589;28;20214;-71
2022/08/03 03:21:50;;;;;;;21.43;5.13;;;;;;;;;;5041195;28;20298;-71
2022/08/03 03:24:17;;;;;;;20.50;5.47;;;;;;;;;;5036920;28;20203;-71
2022/08/03 03:26:45;;;;;;;28.20;5.77;;;;;;;;;;5040287;28;20233;-71
2022/08/03 03:29:12;;;;;;;23.20;5.47;;;;;;;;;;5037769;28;20210;-71
2022/08/03 03:31:41;;;;;;;15.97;5.00;;;;;;;;;;5036445;28;20211;-71
2022/08/03 03:34:08;;;;;;;30.67;5.97;;;;;;;;;;5038254;28;20220;-71
2022/08/03 03:36:36;;;;;;;14.57;5.20;;;;;;;;;;5037358;28;20227;-71
2022/08/03 03:39:03;;;;;;;14.17;4.67;;;;;;;;;;5042540;28;20217;-71
2022/08/03 03:41:30;;;;;;;16.87;4.83;;;;;;;;;;5043077;28;20211;-70
2022/08/03 03:43:58;;;;;;;16.10;5.90;;;;;;;;;;5040852;28;20225;-71
2022/08/03 03:46:25;;;;;;;19.77;5.20;;;;;;;;;;5041668;28;20237;-71
2022/08/03 03:48:54;;;;;;;23.03;6.10;;;;;;;;;;5041675;28;20212;-71
2022/08/03 03:51:21;;;;;;;29.20;6.13;;;;;;;;;;5040511;28;20205;-70
2022/08/03 03:53:55;;;;;;;21.00;5.23;;;;;;;;;;5041023;28;20701;-70
2022/08/03 03:56:23;;;;;;;31.27;6.20;;;;;;;;;;5041751;28;20230;-71
2022/08/03 03:58:50;;;;;;;17.10;5.73;;;;;;;;;;5043422;28;20213;-71
2022/08/03 04:01:17;;;;;;;19.90;5.47;;;;;;;;;;5043659;28;20341;-71
2022/08/03 04:03:45;;;;;;;18.27;4.80;;;;;;;;;;5038295;28;20199;-71
2022/08/03 04:11:46;;;;;;;15.30;5.33;;;;;;;;;;5044402;28;20206;-71
2022/08/03 04:14:15;;;;;;;13.20;5.10;;;;;;;;;;5043186;28;20251;-71
2022/08/03 04:16:43;;;;;;;14.07;5.57;;;;;;;;;;5042327;28;20922;-71
2022/08/03 04:19:12;;;;;;;12.13;4.90;;;;;;;;;;5042924;28;20209;-71
2022/08/03 04:21:41;;;;;;;8.77;4.40;;;;;;;;;;5043238;28;20280;-71
2022/08/03 04:24:09;;;;;;;12.30;4.57;;;;;;;;;;5042430;28;20213;-71
2022/08/03 04:26:37;;;;;;;16.13;4.80;;;;;;;;;;5043877;28;20230;-71
2022/08/03 04:29:06;;;;;;;9.00;4.10;;;;;;;;;;5042560;28;20652;-71
2022/08/03 04:31:34;;;;;;;8.17;3.97;;;;;;;;;;5041433;28;20542;-71
2022/08/03 04:34:01;;;;;;;5.27;3.50;;;;;;;;;;5045173;28;20222;-71
2022/08/03 04:36:30;;;;;;;5.50;3.37;;;;;;;;;;5042537;28;20322;-71
2022/08/03 04:39:01;;;;;;;4.10;3.27;;;;;;;;;;5043597;28;20207;-71
2022/08/03 04:41:29;;;;;;;6.70;3.20;;;;;;;;;;5041501;28;20238;-72
2022/08/03 04:43:57;;;;;;;6.53;3.63;;;;;;;;;;5041606;28;20640;-71
2022/08/03 04:46:27;;;;;;;8.53;3.43;;;;;;;;;;5039059;28;20265;-72
2022/08/03 04:48:54;;;;;;;4.80;3.10;;;;;;;;;;5041998;28;20227;-71
2022/08/03 04:51:22;;;;;;;5.57;3.20;;;;;;;;;;5042252;28;20207;-71
2022/08/03 04:53:49;;;;;;;6.23;3.27;;;;;;;;;;5039564;28;20233;-72
2022/08/03 04:56:18;;;;;;;4.97;3.33;;;;;;;;;;5040562;28;20697;-71
2022/08/03 04:58:45;;;;;;;5.60;3.00;;;;;;;;;;5041298;28;20656;-71
2022/08/03 05:01:12;;;;;;;6.10;3.10;;;;;;;;;;5044703;28;20293;-71
2022/08/03 05:03:39;;;;;;;4.70;3.00;;;;;;;;;;5039483;28;20231;-71
2022/08/03 05:06:07;;;;;;;3.37;2.73;;;;;;;;;;5043729;28;20318;-70
2022/08/03 05:08:34;;;;;;;4.57;2.90;;;;;;;;;;5040307;28;20199;-71
2022/08/03 05:11:01;;;;;;;4.03;3.17;;;;;;;;;;5043492;28;20209;-71
2022/08/03 05:13:30;;;;;;;8.07;3.37;;;;;;;;;;5040066;28;20196;-71
2022/08/03 05:15:57;;;;;;;5.57;2.90;;;;;;;;;;5040351;28;20668;-71
2022/08/03 05:18:24;;;;;;;6.47;3.23;;;;;;;;;;5040567;28;20211;-71
2022/08/03 05:20:51;;;;;;;6.10;3.13;;;;;;;;;;5039958;28;20207;-71
2022/08/03 05:23:18;;;;;;;6.80;3.20;;;;;;;;;;5034207;28;20425;-71
2022/08/03 05:25:46;;;;;;;12.57;3.67;;;;;;;;;;5037315;28;20216;-71
2022/08/03 05:28:13;;;;;;;8.37;3.20;;;;;;;;;;5037618;28;20263;-71
2022/08/03 05:30:41;;;;;;;8.50;3.17;;;;;;;;;;5040390;28;20211;-71
2022/08/03 05:33:09;;;;;;;9.77;3.43;;;;;;;;;;5039543;28;20689;-71
2022/08/03 05:35:37;;;;;;;10.20;3.53;;;;;;;;;;5036623;28;20226;-71
2022/08/03 05:38:05;;;;;;;7.90;3.53;;;;;;;;;;5041851;28;20209;-71
2022/08/03 05:40:32;;;;;;;11.80;3.57;;;;;;;;;;5039973;28;20213;-71
2022/08/03 05:43:00;;;;;;;7.50;3.50;;;;;;;;;;5037087;28;20225;-71
2022/08/03 05:45:27;;;;;;;6.77;3.23;;;;;;;;;;5037006;28;20298;-71
2022/08/03 05:47:56;;;;;;;7.87;3.40;;;;;;;;;;5037494;28;20199;-71
2022/08/03 05:50:23;;;;;;;4.73;3.20;;;;;;;;;;5041888;28;20199;-71
2022/08/03 05:52:50;;;;;;;4.57;3.47;;;;;;;;;;5039443;28;20209;-71
2022/08/03 05:55:17;;;;;;;8.90;3.30;;;;;;;;;;5034109;28;20318;-71
2022/08/03 05:57:46;;;;;;;8.47;3.30;;;;;;;;;;5039054;28;20230;-71
2022/08/03 06:00:13;;;;;;;10.57;3.17;;;;;;;;;;5037675;28;20215;-71
2022/08/03 06:02:41;;;;;;;7.93;3.17;;;;;;;;;;5038860;28;20202;-71
2022/08/03 06:05:10;;;;;;;5.37;3.17;;;;;;;;;;5041132;28;20201;-71
2022/08/03 06:07:37;;;;;;;8.53;3.47;;;;;;;;;;5039915;28;20231;-71
2022/08/03 06:10:05;;;;;;;7.50;2.97;;;;;;;;;;5037828;28;20214;-71
2022/08/03 06:12:34;;;;;;;4.90;3.30;;;;;;;;;;5035479;28;20210;-71
2022/08/03 06:15:02;;;;;;;8.40;3.50;;;;;;;;;;5036172;28;20693;-71
2022/08/03 06:17:29;;;;;;;4.93;3.10;;;;;;;;;;5037682;28;20222;-71
2022/08/03 06:19:56;;;;;;;7.03;3.23;;;;;;;;;;5032864;28;20204;-71
2022/08/03 06:22:25;;;;;;;7.13;3.13;;;;;;;;;;5032683;28;20219;-72
2022/08/03 06:24:52;;;;;;;8.00;2.83;;;;;;;;;;5037869;28;20289;-72
2022/08/03 06:27:19;;;;;;;7.20;2.90;;;;;;;;;;5040779;28;20720;-72
2022/08/03 06:29:47;;;;;;;6.00;2.63;;;;;;;;;;5040617;28;20211;-72
2022/08/03 06:32:14;;;;;;;4.00;2.83;;;;;;;;;;5041864;28;20294;-72
2022/08/03 06:34:41;;;;;;;3.60;2.93;;;;;;;;;;5037978;28;20226;-72
2022/08/03 06:37:08;;;;;;;3.87;2.80;;;;;;;;;;5040135;28;20314;-73
2022/08/03 06:39:36;;;;;;;4.90;2.90;;;;;;;;;;5038715;28;20211;-73
2022/08/03 06:42:04;;;;;;;8.13;2.70;;;;;;;;;;5039396;28;20663;-73
2022/08/03 06:44:31;;;;;;;9.43;2.73;;;;;;;;;;5042079;28;20210;-73
2022/08/03 06:46:58;;;;;;;8.23;2.50;;;;;;;;;;5041960;28;20306;-73
2022/08/03 06:49:25;;;;;;;4.97;2.67;;;;;;;;;;5041668;28;20253;-73
2022/08/03 06:51:53;;;;;;;2.80;2.40;;;;;;;;;;5042445;28;20226;-72
2022/08/03 06:54:23;;;;;;;3.60;2.70;;;;;;;;;;5039131;28;20317;-73
2022/08/03 06:56:51;;;;;;;9.27;2.60;;;;;;;;;;5046083;28;20310;-72
2022/08/03 06:59:19;;;;;;;4.30;2.37;;;;;;;;;;5046092;28;20226;-73
2022/08/03 07:01:46;;;;;;;9.75;2.60;;;;;;;;;;5031325;28;20206;-73
2022/08/03 07:04:13;;;;;;;3.63;2.67;;;;;;;;;;5032865;28;20342;-73
2022/08/03 07:06:40;;;;;;;5.28;2.50;;;;;;;;;;5037199;28;20237;-73
2022/08/03 07:09:07;;;;;;;4.33;2.60;;;;;;;;;;5038143;28;20295;-73
2022/08/03 07:11:34;;;;;;;4.45;2.35;;;;;;;;;;5037386;28;21215;-73
2022/08/03 07:14:03;;;;;;;3.75;2.50;;;;;;;;;;5041798;28;20225;-73
2022/08/03 07:16:30;;;;;;;4.82;2.40;;;;;;;;;;5036326;28;20227;-73
2022/08/03 07:18:57;;;;;;;4.30;2.60;;;;;;;;;;5044569;28;20595;-72
2022/08/03 07:21:24;;;;;;;5.18;2.50;;;;;;;;;;5046384;28;20203;-72
2022/08/03 07:23:51;;;;;;;6.50;2.60;;;;;;;;;;5045176;28;20309;-73
2022/08/03 07:26:18;;;;;;;6.93;2.20;;;;;;;;;;5041999;28;20304;-73
2022/08/03 07:28:46;;;;;;;3.60;2.30;;;;;;;;;;5043777;28;20212;-73
2022/08/03 07:31:14;;;;;;;3.25;2.50;;;;;;;;;;5044583;28;20641;-72
2022/08/03 07:33:41;;;;;;;7.70;2.33;;;;;;;;;;5045068;28;20222;-73
2022/08/03 07:36:08;;;;;;;5.75;2.50;;;;;;;;;;5043317;28;20246;-73
2022/08/03 07:38:36;;;;;;;6.28;2.20;;;;;;;;;;5047857;28;20307;-72
2022/08/03 07:41:03;;;;;;;5.15;2.47;;;;;;;;;;5042876;28;20203;-73
2022/08/03 07:43:30;;;;;;;3.92;2.08;;;;;;;;;;5047343;28;20263;-73
2022/08/03 07:45:58;;;;;;;5.22;2.50;;;;;;;;;;5048188;28;20567;-73
2022/08/03 07:48:29;;;;;;;4.45;2.15;;;;;;;;;;5046496;28;20234;-73
2022/08/03 07:50:56;;;;;;;5.40;2.00;;;;;;;;;;5044692;28;20269;-74
2022/08/03 07:53:23;;;;;;;3.78;2.17;;;;;;;;;;5042634;28;20212;-73
2022/08/03 07:55:50;;;;;;;4.03;2.35;;;;;;;;;;5043966;28;20357;-72
2022/08/03 07:58:18;;;;;;;5.57;1.80;;;;;;;;;;5044842;28;20221;-71
2022/08/03 08:00:45;;;;;;;8.02;2.30;;;;;;;;;;5038177;28;21679;-70
2022/08/03 08:03:12;;;;;;;12.32;2.08;;;;;;;;;;5038103;28;20203;-70
2022/08/03 08:05:41;;;;;;;6.95;2.10;;;;;;;;;;5041653;28;20596;-70
2022/08/03 08:08:08;;;;;;;8.32;2.20;;;;;;;;;;5037204;28;20303;-71
2022/08/03 08:10:35;;;;;;;8.15;2.30;;;;;;;;;;5042626;28;20203;-70
2022/08/03 08:13:02;;;;;;;7.78;2.15;;;;;;;;;;5042919;28;20211;-71
2022/08/03 08:15:30;;;;;;;6.05;2.00;;;;;;;;;;5043234;28;20220;-71
2022/08/03 08:17:58;;;;;;;6.90;2.35;;;;;;;;;;5043000;28;20208;-71
2022/08/03 08:20:26;;;;;;;4.88;2.05;;;;;;;;;;5048735;28;20200;-72
2022/08/03 08:22:55;;;;;;;3.47;1.75;;;;;;;;;;5039428;28;20294;-73
2022/08/03 08:25:22;;;;;;;3.65;2.15;;;;;;;;;;5044331;28;20216;-72
2022/08/03 08:27:50;;;;;;;4.10;2.15;;;;;;;;;;5045225;28;20209;-72
2022/08/03 08:30:18;;;;;;;8.43;1.90;;;;;;;;;;5042590;28;20204;-72
2022/08/03 08:32:45;;;;;;;2.55;1.63;;;;;;;;;;5039946;28;20206;-72
2022/08/03 08:35:13;;;;;;;4.07;2.00;;;;;;;;;;5043849;28;20298;-71
2022/08/03 08:37:40;;;;;;;7.70;1.80;;;;;;;;;;5043410;28;20228;-72
2022/08/03 08:40:09;;;;;;;2.67;1.85;;;;;;;;;;5039941;28;20298;-72
2022/08/03 08:42:38;;;;;;;7.78;1.83;;;;;;;;;;5040124;28;20598;-72
2022/08/03 08:45:07;;;;;;;6.32;1.90;;;;;;;;;;5039028;28;20201;-71
2022/08/03 08:47:37;;;;;;;7.43;2.17;;;;;;;;;;5040949;28;20227;-72
2022/08/03 08:50:05;;;;;;;6.68;2.10;;;;;;;;;;5042189;28;20200;-72
2022/08/03 08:52:33;;;;;;;4.75;1.83;;;;;;;;;;5037195;28;20810;-71
2022/08/03 08:55:02;;;;;;;5.47;2.40;;;;;;;;;;5041473;28;20220;-72
2022/08/03 08:57:31;;;;;;;12.45;2.05;;;;;;;;;;5039520;28;20230;-72
2022/08/03 08:59:59;;;;;;;8.38;2.05;;;;;;;;;;5031314;28;20285;-73
2022/08/03 09:02:27;;;;;;;8.43;1.80;;;;;;;;;;5035516;28;20199;-72
2022/08/03 09:04:54;;;;;;;9.67;2.00;;;;;;;;;;5040046;28;20231;-72
2022/08/03 09:07:21;;;;;;;10.60;2.20;;;;;;;;;;5045065;28;20302;-71
2022/08/03 09:09:49;;;;;;;7.73;1.90;;;;;;;;;;5039649;28;20203;-72
2022/08/03 09:12:16;;;;;;;9.73;2.10;;;;;;;;;;5041601;28;20206;-72
2022/08/03 09:14:44;;;;;;;5.73;1.70;;;;;;;;;;5038712;28;20207;-73
2022/08/03 09:17:12;;;;;;;7.43;2.07;;;;;;;;;;5039009;28;20710;-72
2022/08/03 09:19:39;;;;;;;8.17;1.97;;;;;;;;;;5041456;28;20231;-73
2022/08/03 09:22:10;;;;;;;4.87;2.43;;;;;;;;;;5041136;28;20204;-72
2022/08/03 09:24:37;;;;;;;9.47;2.17;;;;;;;;;;5040150;28;20651;-72
2022/08/03 09:27:06;;;;;;;7.43;1.93;;;;;;;;;;5040554;28;20224;-72
2022/08/03 09:29:34;;;;;;;2.90;1.73;;;;;;;;;;5039797;28;20203;-72
2022/08/03 09:32:04;;;;;;;3.30;1.50;;;;;;;;;;5042051;28;20357;-72
2022/08/03 09:34:31;;;;;;;6.03;2.00;;;;;;;;;;5037174;28;20204;-72
2022/08/03 09:36:58;;;;;;;5.33;1.90;;;;;;;;;;5037571;28;20257;-71
2022/08/03 09:39:30;;;;;;;3.50;1.80;;;;;;;;;;5040977;28;20195;-73
2022/08/03 09:42:07;;;;;;;3.30;1.57;;;;;;;;;;5040933;28;20552;-71
2022/08/03 09:44:35;;;;;;;1.10;1.00;;;;;;;;;;5039984;28;20710;-72
2022/08/03 09:47:05;;;;;;;2.57;1.30;;;;;;;;;;5041552;28;20609;-72
2022/08/03 09:49:32;;;;;;;1.27;1.17;;;;;;;;;;5040593;28;20203;-72
2022/08/03 09:52:02;;;;;;;2.30;1.20;;;;;;;;;;5040511;28;20207;-72
2022/08/03 09:54:30;;;;;;;3.57;1.30;;;;;;;;;;5040761;28;20203;-72
2022/08/03 09:56:57;;;;;;;4.83;1.30;;;;;;;;;;5042308;28;20227;-72
2022/08/03 09:59:25;;;;;;;2.43;1.50;;;;;;;;;;5043838;28;20612;-73
2022/08/03 10:01:52;;;;;;;2.40;1.20;;;;;;;;;;5039910;28;20268;-73
2022/08/03 10:04:21;;;;;;;3.97;1.10;;;;;;;;;;5038056;28;20286;-72
2022/08/03 10:07:02;;;;;;;3.00;1.20;;;;;;;;;;5034437;28;20253;-71
2022/08/03 10:09:29;;;;;;;3.37;1.10;;;;;;;;;;5042137;28;20293;-71
2022/08/03 10:11:58;;;;;;;2.70;1.20;;;;;;;;;;5039876;28;20204;-71
2022/08/03 10:14:30;;;;;;;2.07;1.13;;;;;;;;;;5035330;28;20207;-72
2022/08/03 10:16:57;;;;;;;2.00;1.00;;;;;;;;;;5037913;28;20374;-72
2022/08/03 10:19:26;;;;;;;2.33;1.60;;;;;;;;;;5042668;28;20298;-71
2022/08/03 10:21:55;;;;;;;2.70;1.37;;;;;;;;;;5037830;28;20331;-72
2022/08/03 10:24:25;;;;;;;2.20;1.27;;;;;;;;;;5037368;28;20660;-71
2022/08/03 10:26:54;;;;;;;2.63;1.10;;;;;;;;;;5042277;28;20226;-71
2022/08/03 10:29:23;;;;;;;1.50;1.20;;;;;;;;;;5040734;28;20620;-71
2022/08/03 10:31:54;;;;;;;5.97;1.07;;;;;;;;;;5036751;28;20201;-72
2022/08/03 10:34:24;;;;;;;5.83;1.10;;;;;;;;;;5038063;28;20598;-71
2022/08/03 10:36:56;;;;;;;3.63;1.30;;;;;;;;;;5039954;28;20693;-72
2022/08/03 10:39:24;;;;;;;3.00;1.20;;;;;;;;;;5040426;28;20644;-72
2022/08/03 10:41:53;;;;;;;1.37;1.00;;;;;;;;;;5040010;28;20207;-73
2022/08/03 10:44:21;;;;;;;2.03;1.10;;;;;;;;;;5042976;28;20260;-72
2022/08/03 10:46:49;;;;;;;2.93;1.13;;;;;;;;;;5043953;28;20222;-72
2022/08/03 10:49:17;;;;;;;2.63;1.17;;;;;;;;;;5044188;28;20200;-72
2022/08/03 10:51:45;;;;;;;5.90;1.50;;;;;;;;;;5041610;28;20203;-72
2022/08/03 10:54:27;;;;;;;4.07;1.03;;;;;;;;;;5040639;28;20207;-72
2022/08/03 11:00:02;;;;;;;3.03;1.10;;;;;;;;;;5051360;28;21202;-71
2022/08/03 11:02:48;;;;;;;1.40;1.17;;;;;;;;;;5044092;28;20554;-72
2022/08/03 11:05:28;;;;;;;1.23;1.07;;;;;;;;;;5042759;28;20215;-72
2022/08/03 11:08:25;;;;;;;3.57;1.30;;;;;;;;;;5045755;28;20218;-72
2022/08/03 11:10:53;;;;;;;4.20;1.10;;;;;;;;;;4965086;28;20285;-72
2022/08/03 11:13:23;;;;;;;2.97;1.37;;;;;;;;;;5027646;28;20330;-72
2022/08/03 11:15:51;;;;;;;3.33;1.20;;;;;;;;;;5040202;28;20314;-72
2022/08/03 11:18:18;;;;;;;4.10;1.27;;;;;;;;;;5041889;28;20274;-72
2022/08/03 11:20:47;;;;;;;1.80;1.20;;;;;;;;;;5041743;28;20199;-71
2022/08/03 11:23:14;;;;;;;3.63;1.10;;;;;;;;;;5039022;28;20215;-72
2022/08/03 11:26:00;;;;;;;2.93;1.20;;;;;;;;;;5042499;28;20310;-73
2022/08/03 11:28:29;;;;;;;7.80;1.50;;;;;;;;;;5040435;28;20199;-72
2022/08/03 11:30:56;;;;;;;1.20;1.10;;;;;;;;;;5043428;28;20253;-71
2022/08/03 11:33:30;;;;;;;2.80;1.50;;;;;;;;;;5041075;28;20203;-73
2022/08/03 11:36:01;;;;;;;1.97;1.37;;;;;;;;;;5039181;28;20701;-72
2022/08/03 11:38:28;;;;;;;3.60;1.30;;;;;;;;;;5037510;28;20203;-72
2022/08/03 11:40:55;;;;;;;2.97;1.20;;;;;;;;;;5042686;28;20212;-73
2022/08/03 11:43:44;;;;;;;2.17;1.10;;;;;;;;;;5038335;28;20286;-73
2022/08/03 11:46:16;;;;;;;1.93;1.40;;;;;;;;;;5040615;28;20218;-71
2022/08/03 11:48:44;;;;;;;2.67;1.23;;;;;;;;;;5042586;28;20231;-73
2022/08/03 11:51:20;;;;;;;1.67;1.20;;;;;;;;;;5041337;28;20199;-72
2022/08/03 11:53:47;;;;;;;1.00;0.90;;;;;;;;;;5041904;28;20688;-72
2022/08/03 11:56:14;;;;;;;3.50;1.53;;;;;;;;;;5040621;28;20219;-71
2022/08/03 11:58:47;;;;;;;4.60;1.30;;;;;;;;;;5044700;28;20572;-72
2022/08/03 12:01:16;;;;;;;1.23;1.00;;;;;;;;;;5042981;28;20214;-72
2022/08/03 12:03:43;;;;;;;1.97;1.17;;;;;;;;;;5036518;28;20627;-73
2022/08/03 12:06:11;;;;;;;1.33;1.20;;;;;;;;;;5040048;28;20219;-72
2022/08/03 12:08:38;;;;;;;1.17;1.07;;;;;;;;;;5043676;28;20227;-71
2022/08/03 12:11:07;;;;;;;3.27;1.17;;;;;;;;;;5040755;28;20239;-72
2022/08/03 12:13:38;;;;;;;2.53;0.93;;;;;;;;;;5039086;28;20733;-72
2022/08/03 12:16:06;;;;;;;3.30;1.10;;;;;;;;;;5039533;28;20314;-72
2022/08/03 12:18:34;;;;;;;1.50;1.00;;;;;;;;;;5045656;28;20210;-72
2022/08/03 12:21:05;;;;;;;2.17;1.20;;;;;;;;;;5044641;28;20654;-72
2022/08/03 12:23:33;;;;;;;4.17;1.10;;;;;;;;;;5045444;28;20222;-72
2022/08/03 12:26:02;;;;;;;3.83;1.00;;;;;;;;;;5042018;28;20288;-71
2022/08/03 12:28:29;;;;;;;7.50;1.40;;;;;;;;;;5046129;28;20301;-73
2022/08/03 12:31:01;;;;;;;2.07;1.00;;;;;;;;;;5040232;28;20199;-72
2022/08/03 12:33:28;;;;;;;1.97;1.20;;;;;;;;;;5043166;28;20199;-72
2022/08/03 12:36:08;;;;;;;2.07;1.10;;;;;;;;;;5045640;28;20284;-72
2022/08/03 12:38:36;;;;;;;2.37;1.20;;;;;;;;;;5045020;28;20286;-71
2022/08/03 12:41:05;;;;;;;2.83;1.20;;;;;;;;;;5046887;28;20555;-72
2022/08/03 12:43:32;;;;;;;3.50;1.40;;;;;;;;;;5044621;28;20218;-72
2022/08/03 12:46:12;;;;;;;1.53;1.30;;;;;;;;;;5045557;28;20318;-72
2022/08/03 12:48:58;;;;;;;1.27;1.17;;;;;;;;;;5046035;28;20290;-72
2022/08/03 12:51:27;;;;;;;2.27;1.20;;;;;;;;;;5046088;28;20195;-72
2022/08/03 12:53:54;;;;;;;4.13;1.30;;;;;;;;;;5041584;28;20212;-72
2022/08/03 12:56:21;;;;;;;5.13;1.27;;;;;;;;;;5045535;28;20230;-72
2022/08/03 12:58:49;;;;;;;1.60;1.20;;;;;;;;;;5041818;28;20218;-72
2022/08/03 13:01:16;;;;;;;3.75;1.38;;;;;;;;;;5044492;28;20218;-71
2022/08/03 13:03:44;;;;;;;1.98;1.10;;;;;;;;;;5043056;28;20200;-71
2022/08/03 13:06:12;;;;;;;3.58;1.10;;;;;;;;;;5044498;28;20312;-72
2022/08/03 13:08:41;;;;;;;3.83;1.10;;;;;;;;;;5044939;28;20249;-71
2022/08/03 13:11:24;;;;;;;2.87;1.20;;;;;;;;;;5041156;28;20207;-72
2022/08/03 13:13:52;;;;;;;1.43;1.10;;;;;;;;;;5042101;28;20682;-72
2022/08/03 13:16:20;;;;;;;2.07;1.30;;;;;;;;;;5046236;28;20235;-72
2022/08/03 13:18:48;;;;;;;3.53;1.33;;;;;;;;;;5045163;28;20670;-71
2022/08/03 13:21:15;;;;;;;2.63;1.17;;;;;;;;;;5045540;28;20218;-72
2022/08/03 13:23:44;;;;;;;1.53;1.37;;;;;;;;;;5044243;28;20809;-72
2022/08/03 13:26:11;;;;;;;1.83;1.33;;;;;;;;;;5044011;28;20224;-72
2022/08/03 13:28:38;;;;;;;1.53;1.30;;;;;;;;;;5042035;28;20208;-71
2022/08/03 13:31:06;;;;;;;2.13;1.50;;;;;;;;;;5045592;28;20209;-72
2022/08/03 13:33:34;;;;;;;2.60;1.20;;;;;;;;;;5046423;28;20669;-72
2022/08/03 13:36:01;;;;;;;1.43;1.33;;;;;;;;;;5045801;28;20227;-72
2022/08/03 13:38:28;;;;;;;2.43;1.27;;;;;;;;;;5041494;28;20215;-72
2022/08/03 13:40:56;;;;;;;2.40;1.40;;;;;;;;;;5041638;28;20222;-71
2022/08/03 13:43:24;;;;;;;4.90;1.40;;;;;;;;;;5041808;28;20211;-72
2022/08/03 13:45:51;;;;;;;2.80;1.00;;;;;;;;;;5041952;28;20589;-71
2022/08/03 13:48:18;;;;;;;5.80;1.20;;;;;;;;;;5044265;28;20210;-71
2022/08/03 13:50:45;;;;;;;1.83;1.27;;;;;;;;;;5042884;28;20302;-71
2022/08/03 13:53:12;;;;;;;4.45;1.23;;;;;;;;;;5044534;28;20246;-71
2022/08/03 13:55:39;;;;;;;1.77;1.10;;;;;;;;;;5043292;28;20223;-72
2022/08/03 13:58:11;;;;;;;1.73;1.40;;;;;;;;;;5042360;28;22186;-72
2022/08/03 14:00:38;;;;;;;1.33;1.10;;;;;;;;;;5047541;28;20203;-71
2022/08/03 14:03:06;;;;;;;4.00;1.42;;;;;;;;;;5044049;28;20207;-71
2022/08/03 14:05:34;;;;;;;7.18;1.17;;;;;;;;;;5042726;28;20209;-71
2022/08/03 14:08:01;;;;;;;5.53;1.30;;;;;;;;;;5042088;28;20215;-71
2022/08/03 14:10:28;;;;;;;1.50;1.00;;;;;;;;;;5045475;28;20196;-71
2022/08/03 14:12:59;;;;;;;1.73;1.30;;;;;;;;;;5042234;28;20665;-71
2022/08/03 14:15:27;;;;;;;6.23;1.50;;;;;;;;;;5041670;28;20219;-71
2022/08/03 14:17:55;;;;;;;4.73;1.43;;;;;;;;;;5043185;28;20235;-71
2022/08/03 14:20:22;;;;;;;1.50;1.30;;;;;;;;;;5043436;28;20207;-71
2022/08/03 14:22:49;;;;;;;2.33;1.23;;;;;;;;;;5042970;28;20229;-71
2022/08/03 14:25:17;;;;;;;4.27;1.50;;;;;;;;;;5040913;28;20215;-71
2022/08/03 14:27:44;;;;;;;3.17;1.40;;;;;;;;;;5044028;28;20231;-71
2022/08/03 14:30:12;;;;;;;1.70;1.30;;;;;;;;;;5040638;28;20746;-71
2022/08/03 14:32:40;;;;;;;7.25;1.17;;;;;;;;;;5041709;28;20211;-72
2022/08/03 14:35:08;;;;;;;1.35;1.10;;;;;;;;;;5039957;28;20583;-72
2022/08/03 14:37:35;;;;;;;5.83;1.17;;;;;;;;;;5043929;28;20306;-71
2022/08/03 14:40:02;;;;;;;1.20;1.00;;;;;;;;;;5040819;28;20210;-71
2022/08/03 14:42:29;;;;;;;1.85;1.30;;;;;;;;;;5042065;28;20745;-72
2022/08/03 14:44:56;;;;;;;1.45;1.00;;;;;;;;;;5042191;28;20203;-72
2022/08/03 14:47:23;;;;;;;2.53;1.30;;;;;;;;;;5042564;28;20228;-72
2022/08/03 14:49:52;;;;;;;1.38;1.13;;;;;;;;;;5042364;28;20207;-72
2022/08/03 14:52:19;;;;;;;1.20;1.10;;;;;;;;;;5039912;28;20218;-72
2022/08/03 14:54:46;;;;;;;3.20;1.73;;;;;;;;;;5041126;28;20210;-72
2022/08/03 14:57:13;;;;;;;4.70;1.20;;;;;;;;;;5042966;28;20223;-72